Terminal Aerodrome Forecast
Issued by NWS Cleveland, OH

Home | Current Version | Previous Version | Graphics & Text | Print | Product List | Glossary On
Versions: 1 2 3 4 5 6 7 8 9 10 11 12 13 14 15
218
FTUS41 KCLE 252334
TAFCAK
TAF
KCAK 252334Z 2600/2624 20006KT P6SM SCT100 BKN250
     FM261100 20008KT P6SM VCSH SCT020 BKN080
     FM261500 22010KT P6SM BKN050=

USA.gov is the U.S. government's official web portal to all federal, state and local government web resources and services.